Time;durP1;ratioP1;P1;durP2;ratioP2;P2;SDS_P1;SDS_P2;PMS_P1;PMS_P2;Temp;Humidity;BMP_temperature;BMP_pressure;BME280_temperature;BME280_humidity;BME280_pressure;Samples;Min_cycle;Max_cycle;Signal;HPM_P1;HPM_P2
2021/09/07 00:01:01;;;;;;;19.30;12.38;;;;;;;;;;5113267;28;20016;-84
2021/09/07 00:03:27;;;;;;;17.80;12.30;;;;;;;;;;5111984;28;20039;-83
2021/09/07 00:05:53;;;;;;;18.67;11.90;;;;;;;;;;5112923;28;20035;-83
2021/09/07 00:08:19;;;;;;;17.25;11.90;;;;;;;;;;5111698;28;20027;-81
2021/09/07 00:10:45;;;;;;;17.13;11.82;;;;;;;;;;5112461;28;20023;-83
2021/09/07 00:13:11;;;;;;;18.73;12.00;;;;;;;;;;5111591;28;20030;-78
2021/09/07 00:15:37;;;;;;;17.42;12.48;;;;;;;;;;5113391;28;20099;-83
2021/09/07 00:18:03;;;;;;;16.35;12.50;;;;;;;;;;5111011;28;20467;-82
2021/09/07 00:20:29;;;;;;;17.95;12.05;;;;;;;;;;5113104;28;20379;-80
2021/09/07 00:22:55;;;;;;;18.60;11.95;;;;;;;;;;5112281;28;20041;-83
2021/09/07 00:25:21;;;;;;;15.90;11.68;;;;;;;;;;5111170;28;20062;-83
2021/09/07 00:27:47;;;;;;;14.70;10.60;;;;;;;;;;5112469;28;20028;-80
2021/09/07 00:30:13;;;;;;;17.52;11.73;;;;;;;;;;5112747;28;20103;-82
2021/09/07 00:32:40;;;;;;;17.17;11.73;;;;;;;;;;5112631;28;20063;-84
2021/09/07 00:35:07;;;;;;;16.15;11.82;;;;;;;;;;5111750;28;20082;-84
2021/09/07 00:37:33;;;;;;;16.25;12.05;;;;;;;;;;5111147;28;20110;-84
2021/09/07 00:40:00;;;;;;;16.00;11.05;;;;;;;;;;5112470;28;20027;-85
2021/09/07 00:42:26;;;;;;;15.35;11.70;;;;;;;;;;5112294;28;20091;-84
2021/09/07 00:44:54;;;;;;;16.27;12.00;;;;;;;;;;5112163;28;20027;-83
2021/09/07 00:47:20;;;;;;;15.48;11.38;;;;;;;;;;5112042;28;20046;-84
2021/09/07 00:49:46;;;;;;;16.17;11.55;;;;;;;;;;5112406;28;20045;-83
2021/09/07 00:52:13;;;;;;;13.48;10.50;;;;;;;;;;5111909;28;20390;-80
2021/09/07 00:54:39;;;;;;;15.95;11.90;;;;;;;;;;5112232;28;20032;-83
2021/09/07 00:57:09;;;;;;;15.95;12.02;;;;;;;;;;5111651;28;20509;-81
2021/09/07 00:59:36;;;;;;;14.65;10.68;;;;;;;;;;5112381;28;20067;-84
2021/09/07 01:02:03;;;;;;;16.42;11.45;;;;;;;;;;5111631;28;20510;-84
2021/09/07 01:04:29;;;;;;;14.57;11.43;;;;;;;;;;5111650;28;20028;-83
2021/09/07 01:06:55;;;;;;;16.63;12.38;;;;;;;;;;5111653;28;20035;-84
2021/09/07 01:09:21;;;;;;;16.58;12.73;;;;;;;;;;5111766;28;20055;-83
2021/09/07 01:11:47;;;;;;;16.58;12.48;;;;;;;;;;5111882;28;20544;-83
2021/09/07 01:14:17;;;;;;;15.23;11.80;;;;;;;;;;5111812;28;20031;-85
2021/09/07 01:16:43;;;;;;;16.35;11.32;;;;;;;;;;5111587;28;20022;-84
2021/09/07 01:19:09;;;;;;;16.30;10.90;;;;;;;;;;5112187;28;20099;-85
2021/09/07 01:21:35;;;;;;;14.98;11.70;;;;;;;;;;5111698;28;20452;-80
2021/09/07 01:24:02;;;;;;;15.73;11.52;;;;;;;;;;5110990;28;20032;-85
2021/09/07 01:26:28;;;;;;;17.20;12.60;;;;;;;;;;5110577;28;20494;-84
2021/09/07 01:28:54;;;;;;;16.98;12.45;;;;;;;;;;5111454;28;20028;-86
2021/09/07 01:31:20;;;;;;;14.63;11.52;;;;;;;;;;5111773;28;20450;-84
2021/09/07 01:33:47;;;;;;;13.80;10.98;;;;;;;;;;5110954;28;20033;-85
2021/09/07 01:36:14;;;;;;;13.82;11.15;;;;;;;;;;5111923;28;20032;-86
2021/09/07 01:38:41;;;;;;;16.08;11.70;;;;;;;;;;5111196;28;20091;-86
2021/09/07 01:41:07;;;;;;;15.52;11.95;;;;;;;;;;5111604;28;20483;-82
2021/09/07 01:43:33;;;;;;;15.85;11.50;;;;;;;;;;5111190;28;20165;-85
2021/09/07 01:45:59;;;;;;;15.52;12.00;;;;;;;;;;5110695;28;20454;-84
2021/09/07 01:48:25;;;;;;;14.32;10.88;;;;;;;;;;5111043;28;20421;-85
2021/09/07 01:50:52;;;;;;;16.42;11.52;;;;;;;;;;5111094;28;20028;-85
2021/09/07 01:53:18;;;;;;;16.23;12.40;;;;;;;;;;5111132;28;20031;-84
2021/09/07 01:55:44;;;;;;;14.63;11.50;;;;;;;;;;5110234;28;20115;-82
2021/09/07 01:58:10;;;;;;;13.68;11.35;;;;;;;;;;5110355;28;20110;-86
2021/09/07 02:00:37;;;;;;;15.48;11.35;;;;;;;;;;5111120;28;20116;-86
2021/09/07 02:03:03;;;;;;;16.02;11.85;;;;;;;;;;5111172;28;20035;-82
2021/09/07 02:05:29;;;;;;;14.52;10.70;;;;;;;;;;5110889;28;20047;-85
2021/09/07 02:07:55;;;;;;;13.20;10.43;;;;;;;;;;5111295;28;20067;-87
2021/09/07 02:10:21;;;;;;;14.15;11.07;;;;;;;;;;5111594;28;20048;-87
2021/09/07 02:12:47;;;;;;;14.27;11.48;;;;;;;;;;5110939;28;20031;-86
2021/09/07 02:15:14;;;;;;;13.90;11.30;;;;;;;;;;5111514;28;20019;-85
2021/09/07 02:17:40;;;;;;;15.93;10.85;;;;;;;;;;5111373;28;20020;-85
2021/09/07 02:20:07;;;;;;;13.32;10.80;;;;;;;;;;5111288;28;20028;-84
2021/09/07 02:22:33;;;;;;;14.82;11.80;;;;;;;;;;5110909;28;20030;-84
2021/09/07 02:24:59;;;;;;;15.13;11.15;;;;;;;;;;5110466;28;20048;-86
2021/09/07 02:27:25;;;;;;;14.93;11.30;;;;;;;;;;5110823;28;20036;-85
2021/09/07 02:29:51;;;;;;;13.27;11.38;;;;;;;;;;5110716;28;20484;-85
2021/09/07 02:32:17;;;;;;;14.88;11.50;;;;;;;;;;5110558;28;20034;-87
2021/09/07 02:34:43;;;;;;;15.05;10.70;;;;;;;;;;5110365;28;20020;-86
2021/09/07 02:37:10;;;;;;;14.70;11.07;;;;;;;;;;5111300;28;20386;-85
2021/09/07 02:39:36;;;;;;;12.65;10.68;;;;;;;;;;5111598;28;20432;-85
2021/09/07 02:42:03;;;;;;;13.32;10.50;;;;;;;;;;5110717;28;20030;-85
2021/09/07 02:44:29;;;;;;;12.48;10.75;;;;;;;;;;5110218;28;20076;-83
2021/09/07 02:46:56;;;;;;;16.15;11.85;;;;;;;;;;5109175;28;20090;-85
2021/09/07 02:49:22;;;;;;;15.80;11.65;;;;;;;;;;5110355;28;20441;-85
2021/09/07 02:51:48;;;;;;;12.77;10.52;;;;;;;;;;5110914;28;20475;-85
2021/09/07 02:54:15;;;;;;;15.73;11.30;;;;;;;;;;5110165;28;20107;-85
2021/09/07 02:56:41;;;;;;;14.95;11.05;;;;;;;;;;5109721;28;20020;-85
2021/09/07 02:59:09;;;;;;;14.45;10.65;;;;;;;;;;5111006;28;20423;-84
2021/09/07 03:01:35;;;;;;;13.93;11.07;;;;;;;;;;5112027;28;20471;-85
2021/09/07 03:04:01;;;;;;;13.73;10.48;;;;;;;;;;5113947;28;20072;-85
2021/09/07 03:06:27;;;;;;;15.80;10.43;;;;;;;;;;5114404;28;20055;-86
2021/09/07 03:08:53;;;;;;;14.20;10.95;;;;;;;;;;5114056;28;20059;-84
2021/09/07 03:11:19;;;;;;;14.90;11.32;;;;;;;;;;5113897;28;20058;-84
2021/09/07 03:13:45;;;;;;;16.95;11.95;;;;;;;;;;5113316;28;20047;-86
2021/09/07 03:16:11;;;;;;;12.88;10.70;;;;;;;;;;5114455;28;20031;-85
2021/09/07 03:18:37;;;;;;;15.05;11.98;;;;;;;;;;5114598;28;20152;-85
2021/09/07 03:21:03;;;;;;;12.82;11.15;;;;;;;;;;5114025;28;20107;-83
2021/09/07 03:23:29;;;;;;;13.30;11.48;;;;;;;;;;5113950;28;20099;-83
2021/09/07 03:25:56;;;;;;;13.23;10.80;;;;;;;;;;5113298;28;20169;-84
2021/09/07 03:28:22;;;;;;;14.35;11.25;;;;;;;;;;5113838;28;20471;-84
2021/09/07 03:30:48;;;;;;;12.43;10.50;;;;;;;;;;5113929;28;20027;-85
2021/09/07 03:33:14;;;;;;;14.57;11.10;;;;;;;;;;5114016;28;20024;-82
2021/09/07 03:35:40;;;;;;;14.82;10.50;;;;;;;;;;5113891;28;20036;-85
2021/09/07 03:38:06;;;;;;;12.50;10.45;;;;;;;;;;5114448;28;20028;-85
2021/09/07 03:40:32;;;;;;;12.68;10.57;;;;;;;;;;5113449;28;20027;-85
2021/09/07 03:42:58;;;;;;;13.30;10.50;;;;;;;;;;5113328;28;20102;-85
2021/09/07 03:45:24;;;;;;;12.18;9.38;;;;;;;;;;5113253;28;20107;-84
2021/09/07 03:47:50;;;;;;;12.93;10.30;;;;;;;;;;5111983;28;20536;-84
2021/09/07 03:50:16;;;;;;;12.85;10.13;;;;;;;;;;5113509;28;20110;-84
2021/09/07 03:52:42;;;;;;;12.95;10.38;;;;;;;;;;5111868;28;20475;-85
2021/09/07 03:55:08;;;;;;;13.35;10.23;;;;;;;;;;5113388;28;20024;-84
2021/09/07 03:57:34;;;;;;;13.45;10.20;;;;;;;;;;5112690;28;20031;-85
2021/09/07 04:00:01;;;;;;;13.10;9.52;;;;;;;;;;5113319;28;20092;-83
2021/09/07 04:02:27;;;;;;;12.93;10.30;;;;;;;;;;5113314;28;20115;-84
2021/09/07 04:04:54;;;;;;;12.00;10.18;;;;;;;;;;5112652;28;20024;-85
2021/09/07 04:07:20;;;;;;;15.02;10.68;;;;;;;;;;5113405;28;20035;-84
2021/09/07 04:09:46;;;;;;;15.23;11.25;;;;;;;;;;5112416;28;20031;-85
2021/09/07 04:12:12;;;;;;;13.45;10.65;;;;;;;;;;5112155;28;20039;-81
2021/09/07 04:14:38;;;;;;;12.75;10.75;;;;;;;;;;5113813;28;20102;-83
2021/09/07 04:17:06;;;;;;;12.77;10.55;;;;;;;;;;5112916;28;20026;-86
2021/09/07 04:19:32;;;;;;;13.85;10.85;;;;;;;;;;5111863;28;20031;-86
2021/09/07 04:21:58;;;;;;;13.32;10.68;;;;;;;;;;5112353;28;20024;-82
2021/09/07 04:24:24;;;;;;;13.68;10.82;;;;;;;;;;5113050;28;20027;-83
2021/09/07 04:26:53;;;;;;;15.00;10.30;;;;;;;;;;5112180;28;20044;-84
2021/09/07 04:29:19;;;;;;;13.57;10.88;;;;;;;;;;5112830;28;20023;-85
2021/09/07 04:31:45;;;;;;;12.63;9.90;;;;;;;;;;5112483;28;20058;-81
2021/09/07 04:34:11;;;;;;;14.93;11.27;;;;;;;;;;5112672;28;20486;-84
2021/09/07 04:36:37;;;;;;;13.13;10.23;;;;;;;;;;5112953;28;20516;-84
2021/09/07 04:39:04;;;;;;;11.75;9.73;;;;;;;;;;5112248;28;20028;-83
2021/09/07 04:41:30;;;;;;;12.40;10.70;;;;;;;;;;5111988;28;20038;-83
2021/09/07 04:43:56;;;;;;;12.93;10.43;;;;;;;;;;5111579;28;20027;-81
2021/09/07 04:46:22;;;;;;;12.30;10.07;;;;;;;;;;5112481;28;20030;-81
2021/09/07 04:48:49;;;;;;;12.98;11.07;;;;;;;;;;5110554;28;20058;-83
2021/09/07 04:51:15;;;;;;;12.63;10.38;;;;;;;;;;5112282;28;20024;-81
2021/09/07 04:53:41;;;;;;;13.57;11.15;;;;;;;;;;5110515;28;20095;-82
2021/09/07 04:56:07;;;;;;;12.38;10.30;;;;;;;;;;5112087;28;20023;-82
2021/09/07 04:58:33;;;;;;;13.60;10.68;;;;;;;;;;5111510;28;20028;-80
2021/09/07 05:00:59;;;;;;;12.70;10.23;;;;;;;;;;5111630;28;20057;-83
2021/09/07 05:03:25;;;;;;;14.52;10.90;;;24.40;80.10;;;;;;5112194;28;20042;-82
2021/09/07 05:05:51;;;;;;;14.85;10.60;;;22.70;88.90;;;;;;5111402;28;20020;-82
2021/09/07 05:08:16;;;;;;;14.60;11.13;;;22.60;88.90;;;;;;5111358;28;20081;-84
2021/09/07 05:10:42;;;;;;;13.70;10.82;;;22.60;88.70;;;;;;5111890;28;20488;-82
2021/09/07 05:13:07;;;;;;;14.40;10.75;;;22.60;88.80;;;;;;5112311;28;20030;-84
2021/09/07 05:15:33;;;;;;;11.77;9.48;;;22.60;88.60;;;;;;5112106;28;20103;-84
2021/09/07 05:17:59;;;;;;;12.25;9.68;;;22.60;88.60;;;;;;5111506;28;20030;-83
2021/09/07 05:20:24;;;;;;;13.52;10.40;;;22.60;88.50;;;;;;5111943;28;20020;-83
2021/09/07 05:22:50;;;;;;;13.50;10.93;;;22.60;88.60;;;;;;5111297;28;20448;-83
2021/09/07 05:25:15;;;;;;;13.27;10.68;;;22.60;88.50;;;;;;5110303;28;20395;-82
2021/09/07 05:27:41;;;;;;;13.77;11.48;;;22.60;88.40;;;;;;5111742;28;20059;-84
2021/09/07 05:30:10;;;;;;;13.50;9.95;;;22.60;88.40;;;;;;5111481;28;20028;-84
2021/09/07 05:32:35;;;;;;;14.02;11.10;;;22.60;88.40;;;;;;5111825;28;20403;-83
2021/09/07 05:35:01;;;;;;;12.48;10.10;;;22.60;88.40;;;;;;5111234;28;20023;-81
2021/09/07 05:37:27;;;;;;;15.00;10.30;;;22.60;88.20;;;;;;5111114;28;20544;-85
2021/09/07 05:39:53;;;;;;;14.07;10.27;;;;;;;;;;5111138;28;20028;-83
2021/09/07 05:42:19;;;;;;;13.55;10.00;;;;;;;;;;5111644;28;20517;-79
2021/09/07 05:44:45;;;;;;;13.40;10.02;;;;;;;;;;5111117;28;20058;-82
2021/09/07 05:47:11;;;;;;;12.13;10.60;;;;;;;;;;5111069;28;20063;-83
2021/09/07 05:49:37;;;;;;;12.35;10.75;;;;;;;;;;5111426;28;20034;-81
2021/09/07 05:52:03;;;;;;;13.98;11.02;;;;;;;;;;5111071;28;20031;-79
2021/09/07 05:54:29;;;;;;;13.13;10.82;;;;;;;;;;5109390;28;20055;-81
2021/09/07 05:56:57;;;;;;;13.27;10.13;;;;;;;;;;5110135;28;20020;-85
2021/09/07 05:59:23;;;;;;;13.75;10.82;;;;;;;;;;5110628;28;20490;-88
2021/09/07 06:01:49;;;;;;;14.32;10.38;;;;;;;;;;5110800;28;20082;-83
2021/09/07 06:04:15;;;;;;;13.68;10.88;;;;;;;;;;5110674;28;20487;-79
2021/09/07 06:06:41;;;;;;;15.48;10.43;;;;;;;;;;5110882;28;20039;-80
2021/09/07 06:09:07;;;;;;;14.70;10.55;;;;;;;;;;5111666;28;20069;-79
2021/09/07 06:11:33;;;;;;;17.00;10.48;;;;;;;;;;5111521;28;20429;-84
2021/09/07 06:13:59;;;;;;;13.68;9.20;;;;;;;;;;5110911;28;20032;-90
2021/09/07 06:16:25;;;;;;;15.82;11.00;;;;;;;;;;5111721;28;20031;-87
2021/09/07 06:18:51;;;;;;;16.45;10.23;;;;;;;;;;5111424;28;20588;-87
2021/09/07 06:21:17;;;;;;;13.07;10.10;;;;;;;;;;5111196;28;20435;-87
2021/09/07 06:23:43;;;;;;;13.10;9.55;;;;;;;;;;5118499;28;20040;-90
2021/09/07 06:26:09;;;;;;;12.93;10.68;;;;;;;;;;5111858;28;20031;-87
2021/09/07 06:28:35;;;;;;;14.80;11.73;;;;;;;;;;5111523;28;20038;-82
2021/09/07 06:31:01;;;;;;;15.25;11.88;;;;;;;;;;5111650;28;20102;-90
2021/09/07 06:33:27;;;;;;;15.07;10.63;;;;;;;;;;5110894;28;20126;-88
2021/09/07 06:35:54;;;;;;;23.08;16.08;;;;;;;;;;5112984;28;20028;-88
2021/09/07 06:38:20;;;;;;;20.02;14.77;;;;;;;;;;5113774;28;20448;-84
2021/09/07 06:40:46;;;;;;;19.95;13.82;;;;;;;;;;5114833;28;20031;-81
2021/09/07 06:43:12;;;;;;;18.92;12.95;;;;;;;;;;5114748;28;20502;-86
2021/09/07 06:45:38;;;;;;;18.65;12.82;;;;;;;;;;5115062;28;20023;-80
2021/09/07 06:48:04;;;;;;;21.65;13.60;;;;;;;;;;5114720;28;20023;-81
2021/09/07 06:50:30;;;;;;;18.85;14.38;;;;;;;;;;5114963;28;20020;-77
2021/09/07 06:52:56;;;;;;;21.88;14.23;;;;;;;;;;5111977;28;20034;-77
2021/09/07 06:55:22;;;;;;;22.77;15.07;;;;;;;;;;5113187;28;20020;-86
2021/09/07 06:57:48;;;;;;;21.27;15.13;;;;;;;;;;5112930;27;20023;-78
2021/09/07 07:00:15;;;;;;;22.38;14.65;;;;;;;;;;5111106;27;20035;-87
2021/09/07 07:02:41;;;;;;;20.33;13.90;;;;;;;;;;5113169;27;20023;-86
2021/09/07 07:05:08;;;;;;;19.83;13.60;;;;;;;;;;5113197;28;20019;-86
2021/09/07 07:07:34;;;;;;;26.70;14.15;;;;;;;;;;5113125;28;20027;-82
2021/09/07 07:10:01;;;;;;;23.08;15.00;;;;;;;;;;5112690;28;20286;-82
2021/09/07 07:12:27;;;;;;;25.25;14.77;;;;;;;;;;5111822;28;20027;-84
2021/09/07 17:12:10;;;;;;;;;;;;;;;;;;5089157;28;20386;-81
2021/09/07 17:14:36;;;;;;;;;;;;;;;;;;5087562;28;19908;-79
2021/09/07 17:17:04;;;;;;;9.07;6.03;;;;;;;;;;5087326;28;19908;-82
2021/09/07 17:19:30;;;;;;;13.50;6.03;;;;;;;;;;5088560;28;20067;-77
2021/09/07 17:21:56;;;;;;;11.10;5.88;;;;;;;;;;5086386;28;20089;-80
2021/09/07 17:24:22;;;;;;;8.20;6.15;;;;;;;;;;5083519;28;20027;-78
2021/09/07 17:26:48;;;;;;;9.27;6.45;;;;;;;;;;5085261;28;20056;-82
2021/09/07 17:29:19;;;;;;;9.70;6.35;;;;;;;;;;5088549;28;20098;-81
2021/09/07 17:34:38;;;;;;;12.98;10.15;;;;;;;;;;5061099;28;20570;-82
2021/09/07 17:42:21;;;;;;;20.38;16.35;;;;;;;;;;5077914;28;20447;-81
2021/09/07 17:44:47;;;;;;;21.33;16.20;;;;;;;;;;5087770;28;20021;-81
2021/09/07 17:47:13;;;;;;;21.67;15.93;;;;;;;;;;5086821;28;20054;-80
2021/09/07 17:49:40;;;;;;;22.08;15.32;;;;;;;;;;5088207;28;20373;-81
2021/09/07 17:52:07;;;;;;;16.88;13.55;;;;;;;;;;5087959;28;20487;-81
2021/09/07 17:54:33;;;;;;;21.88;11.68;;;;;;;;;;5087721;28;20024;-80
2021/09/07 17:56:59;;;;;;;18.20;12.55;;;;;;;;;;5085120;28;20391;-79
2021/09/07 17:59:25;;;;;;;20.58;11.10;;;;;;;;;;5087576;28;20035;-80
2021/09/07 18:01:51;;;;;;;15.63;10.80;;;;;;;;;;5087061;28;20032;-81
2021/09/07 18:04:17;;;;;;;15.02;9.27;;;;;;;;;;5085753;28;20460;-81
2021/09/07 18:06:44;;;;;;;13.65;9.75;;;;;;;;;;5090031;28;20039;-80
2021/09/07 18:09:10;;;;;;;12.27;8.98;;;;;;;;;;5099441;28;20025;-81
2021/09/07 18:11:36;;;;;;;14.27;9.70;;;;;;;;;;5095786;28;20518;-82
2021/09/07 18:14:02;;;;;;;9.77;7.72;;;;;;;;;;5102093;28;20032;-81
2021/09/07 18:16:29;;;;;;;10.27;8.30;;;;;;;;;;5089327;28;20123;-82
2021/09/07 18:18:55;;;;;;;12.05;8.02;;;;;;;;;;5091893;28;20360;-81
2021/09/07 18:21:21;;;;;;;12.20;7.20;;;;;;;;;;5087160;28;20489;-80
2021/09/07 18:23:47;;;;;;;10.35;7.47;;;;;;;;;;5057950;28;20435;-81
2021/09/07 18:26:13;;;;;;;10.18;7.28;;;;;;;;;;5073421;28;20111;-81
2021/09/07 18:28:39;;;;;;;12.20;7.20;;;;;;;;;;5079570;28;20088;-81
2021/09/07 18:31:05;;;;;;;9.20;7.35;;;;;;;;;;5075460;28;20614;-82
2021/09/07 18:33:32;;;;;;;9.90;7.00;;;;;;;;;;5073613;28;20091;-81
2021/09/07 18:35:58;;;;;;;11.98;7.20;;;;;;;;;;5078134;28;20029;-81
2021/09/07 18:38:24;;;;;;;8.57;6.40;;;;;;;;;;5072593;28;20457;-79
2021/09/07 18:40:50;;;;;;;8.90;6.38;;;;;;;;;;5072081;28;20028;-82
2021/09/07 18:43:16;;;;;;;11.40;6.72;;;;;;;;;;5074479;28;20036;-83
2021/09/07 18:45:43;;;;;;;11.35;6.03;;;;;;;;;;5070177;28;20111;-83
2021/09/07 18:48:09;;;;;;;10.27;6.10;;;;;;;;;;5072995;28;20054;-82
2021/09/07 18:50:36;;;;;;;12.82;6.15;;;;;;;;;;5079380;28;20475;-81
2021/09/07 18:53:02;;;;;;;12.57;6.95;;;;;;;;;;5081633;28;20086;-82
2021/09/07 18:55:32;;;;;;;10.27;6.68;;;;;;;;;;5074158;28;20036;-82
2021/09/07 18:57:59;;;;;;;12.45;7.15;;;;;;;;;;5076493;28;20531;-82
2021/09/07 19:00:25;;;;;;;13.15;7.05;;;;;;;;;;5078737;28;20028;-81
2021/09/07 19:02:51;;;;;;;8.85;6.32;;;;;;;;;;5082838;28;20095;-81
2021/09/07 19:05:17;;;;;;;8.40;6.65;;;;;;;;;;5073045;28;20383;-78
2021/09/07 19:07:43;;;;;;;7.95;6.03;;;;;;;;;;5075231;28;20024;-81
2021/09/07 19:10:09;;;;;;;9.27;7.50;;;;;;;;;;5076704;28;20040;-81
2021/09/07 19:12:35;;;;;;;7.60;5.63;;;;;;;;;;5076099;28;20506;-81
2021/09/07 19:15:02;;;;;;;9.70;6.15;;;;;;;;;;5069638;28;20029;-81
2021/09/07 19:17:31;;;;;;;8.98;6.65;;;;;;;;;;5075438;28;20385;-81
2021/09/07 19:19:57;;;;;;;9.23;6.97;;;;;;;;;;5074012;28;20020;-81
2021/09/07 19:22:24;;;;;;;7.95;6.32;;;;;;;;;;5078209;28;20110;-82
2021/09/07 19:24:50;;;;;;;8.73;5.72;;;;;;;;;;5073052;28;20048;-82
2021/09/07 19:27:16;;;;;;;9.05;6.80;;;;;;;;;;5085690;28;20043;-85
2021/09/07 19:29:42;;;;;;;10.77;6.70;;;;;;;;;;5073318;28;20047;-80
2021/09/07 19:32:08;;;;;;;10.60;7.15;;;;;;;;;;5099835;28;20036;-80
2021/09/07 19:34:34;;;;;;;14.80;6.93;;;;;;;;;;5074564;28;20027;-81
2021/09/07 19:37:00;;;;;;;10.93;7.15;;;;;;;;;;5084106;28;20598;-83
2021/09/07 19:39:27;;;;;;;10.90;7.03;;;;;;;;;;5071266;28;20021;-84
2021/09/07 19:41:53;;;;;;;9.30;6.53;;;;;;;;;;5072733;28;20024;-84
2021/09/07 19:44:19;;;;;;;9.70;6.70;;;;;;;;;;5076494;28;20021;-85
2021/09/07 19:46:46;;;;;;;19.55;7.40;;;;;;;;;;5082690;28;20020;-83
2021/09/07 19:49:12;;;;;;;12.98;6.95;;;;;;;;;;5080929;28;20026;-82
2021/09/07 19:51:38;;;;;;;14.05;6.47;;;;;;;;;;5071975;28;20032;-84
2021/09/07 19:54:04;;;;;;;11.15;7.75;;;;;;;;;;5070389;28;20480;-83
2021/09/07 19:56:32;;;;;;;13.93;7.47;;;;;;;;;;5078812;28;20447;-83
2021/09/07 19:58:58;;;;;;;15.32;6.97;;;;;;;;;;5075553;28;20024;-85
2021/09/07 20:01:24;;;;;;;11.05;7.22;;;;;;;;;;5072188;28;20443;-84
2021/09/07 20:03:50;;;;;;;11.55;7.05;;;;;;;;;;5072649;28;20526;-81
2021/09/07 20:06:16;;;;;;;11.48;7.57;;;;;;;;;;5074594;28;20028;-81
2021/09/07 20:08:44;;;;;;;11.65;7.38;;;;;;;;;;5088702;28;20028;-82
2021/09/07 20:11:10;;;;;;;12.93;6.75;;;;;;;;;;5073069;28;20059;-82
2021/09/07 20:13:36;;;;;;;10.40;6.93;;;;;;;;;;5072590;28;20461;-81
2021/09/07 20:16:02;;;;;;;8.63;6.85;;;;;;;;;;5073807;28;20052;-83
2021/09/07 20:18:28;;;;;;;12.23;7.47;;;;;;;;;;5056562;28;20024;-83
2021/09/07 20:20:54;;;;;;;12.13;7.82;;;;;;;;;;5069782;28;20430;-82
2021/09/07 20:23:20;;;;;;;11.13;7.25;;;;;;;;;;5070889;28;20029;-80
2021/09/07 20:25:46;;;;;;;11.40;7.10;;;;;;;;;;5071415;28;20020;-82
2021/09/07 20:28:12;;;;;;;12.50;7.45;;;;;;;;;;5071284;28;20096;-81
2021/09/07 20:30:38;;;;;;;9.88;6.85;;;;;;;;;;5054016;28;20498;-81
2021/09/07 20:33:04;;;;;;;9.70;7.30;;;;;;;;;;5051203;28;20036;-82
2021/09/07 20:35:31;;;;;;;11.27;7.68;;;;;;;;;;5058729;28;20055;-80
2021/09/07 20:37:57;;;;;;;9.57;6.72;;;;;;;;;;5070633;28;20082;-83
2021/09/07 20:40:23;;;;;;;11.95;7.70;;;;;;;;;;5070744;28;20431;-82
2021/09/07 20:42:49;;;;;;;14.32;8.20;;;;;;;;;;5071099;28;20090;-81
2021/09/07 20:45:16;;;;;;;11.40;7.25;;;;;;;;;;5070889;28;20056;-83
2021/09/07 20:47:43;;;;;;;13.95;8.60;;;;;;;;;;5067512;28;20099;-81
2021/09/07 20:50:09;;;;;;;9.88;7.50;;;;;;;;;;5071468;28;20028;-80
2021/09/07 20:52:35;;;;;;;11.65;7.63;;;;;;;;;;5071666;28;20028;-83
2021/09/07 20:55:01;;;;;;;10.68;8.02;;;;;;;;;;5069941;28;20047;-82
2021/09/07 20:57:27;;;;;;;11.45;7.55;;;;;;;;;;5071408;28;20495;-83
2021/09/07 20:59:54;;;;;;;12.20;7.38;;;;;;;;;;5070970;28;20021;-82
2021/09/07 21:02:20;;;;;;;11.65;7.40;;;;;;;;;;5069083;28;20024;-79
2021/09/07 21:04:46;;;;;;;11.88;7.60;;;;;;;;;;5070434;28;20056;-84
2021/09/07 21:07:12;;;;;;;9.77;7.18;;;;;;;;;;5071183;28;20051;-82
2021/09/07 21:09:38;;;;;;;10.57;7.25;;;;;;;;;;5070436;28;20047;-84
2021/09/07 21:12:04;;;;;;;12.70;7.90;;;;;;;;;;5069552;28;20492;-82
2021/09/07 21:14:31;;;;;;;12.50;7.63;;;;;;;;;;5069300;28;20025;-85
2021/09/07 21:16:57;;;;;;;11.23;8.23;;;;;;;;;;5066056;28;20029;-84
2021/09/07 21:19:23;;;;;;;9.57;7.15;;;;;;;;;;5068728;28;20134;-84
2021/09/07 21:21:49;;;;;;;12.00;7.57;;;;;;;;;;5069490;28;20025;-80
2021/09/07 21:24:15;;;;;;;10.55;7.63;;;;;;;;;;5068836;28;20032;-79
2021/09/07 21:26:41;;;;;;;12.73;7.47;;;;;;;;;;5070008;28;20046;-86
2021/09/07 21:29:10;;;;;;;9.55;7.68;;;;;;;;;;5070981;28;20020;-86
2021/09/07 21:31:37;;;;;;;10.40;7.32;;;;;;;;;;5069365;28;20115;-83
2021/09/07 21:34:03;;;;;;;13.45;7.97;;;;;;;;;;5069866;28;20028;-84
2021/09/07 21:36:29;;;;;;;15.07;8.63;;;;;;;;;;5070567;28;20032;-79
2021/09/07 21:38:56;;;;;;;12.73;8.32;;;;;;;;;;5069384;28;20023;-80
2021/09/07 21:41:23;;;;;;;12.05;8.10;;;;;;;;;;5070672;28;20028;-81
2021/09/07 21:43:49;;;;;;;12.05;7.68;;;;;;;;;;5070402;28;20086;-81
2021/09/07 21:46:15;;;;;;;9.77;7.88;;;;;;;;;;5069722;28;20036;-80
2021/09/07 21:48:41;;;;;;;10.88;6.90;;;;;;;;;;5066800;28;20551;-83
2021/09/07 21:51:07;;;;;;;12.75;7.40;;;;;;;;;;5070440;28;20047;-81
2021/09/07 21:53:33;;;;;;;11.52;7.88;;;;;;;;;;5070342;28;20023;-85
2021/09/07 21:55:59;;;;;;;10.27;6.78;;;;;;;;;;5069942;28;20055;-81
2021/09/07 21:58:25;;;;;;;10.63;7.97;;;;;;;;;;5073110;28;20020;-82
2021/09/07 22:00:52;;;;;;;14.18;8.13;;;;;;;;;;5073309;28;20025;-80
2021/09/07 22:03:18;;;;;;;13.55;6.63;;;;;;;;;;5073107;28;20020;-80
2021/09/07 22:05:44;;;;;;;13.00;7.60;;;;;;;;;;5072146;28;20024;-80
2021/09/07 22:08:10;;;;;;;11.18;6.72;;;;;;;;;;5072813;28;20033;-80
2021/09/07 22:10:36;;;;;;;12.45;7.35;;;;;;;;;;5073145;28;20031;-81
2021/09/07 22:13:02;;;;;;;10.73;8.13;;;;;;;;;;5073502;28;20036;-80
2021/09/07 22:15:28;;;;;;;11.25;7.93;;;;;;;;;;5073461;28;20029;-82
2021/09/07 22:17:54;;;;;;;12.70;7.43;;;;;;;;;;5073216;28;20077;-80
2021/09/07 22:20:20;;;;;;;9.25;6.90;;;;;;;;;;5073735;28;20021;-79
2021/09/07 22:22:46;;;;;;;9.27;6.97;;;;;;;;;;5073291;28;20020;-81
2021/09/07 22:25:13;;;;;;;11.32;7.43;;;;;;;;;;5074064;28;20032;-81
2021/09/07 22:27:39;;;;;;;9.25;7.43;;;;;;;;;;5073988;28;20032;-82
2021/09/07 22:30:05;;;;;;;12.48;7.03;;;;;;;;;;5073189;28;20021;-81
2021/09/07 22:32:31;;;;;;;11.30;7.65;;;;;;;;;;5071876;28;20032;-82
2021/09/07 22:34:57;;;;;;;12.90;7.32;;;;;;;;;;5073066;28;20024;-80
2021/09/07 22:37:23;;;;;;;9.98;6.75;;;;;;;;;;5073253;28;20492;-77
2021/09/07 22:39:49;;;;;;;11.57;6.97;;;;;;;;;;5073159;28;20488;-78
2021/09/07 22:42:15;;;;;;;10.60;7.10;;;;;;;;;;5072920;28;20039;-82
2021/09/07 22:44:41;;;;;;;10.77;7.43;;;;;;;;;;5072790;28;20027;-79
2021/09/07 22:47:07;;;;;;;9.07;6.90;;;;;;;;;;5071953;28;20370;-81
2021/09/07 22:49:34;;;;;;;10.27;7.68;;;;;;;;;;5073112;28;20040;-81
2021/09/07 22:52:00;;;;;;;11.32;7.45;;;;;;;;;;5072736;28;20589;-81
2021/09/07 22:54:26;;;;;;;11.52;7.05;;;;;;;;;;5072761;28;20582;-82
2021/09/07 22:56:52;;;;;;;10.38;8.27;;;;;;;;;;5072730;28;20488;-82
2021/09/07 22:59:18;;;;;;;9.15;7.10;;;;;;;;;;5072254;28;20031;-81
2021/09/07 23:01:44;;;;;;;13.10;7.93;;;;;;;;;;5070968;28;20526;-79
2021/09/07 23:04:10;;;;;;;15.52;7.30;;;;;;;;;;5072869;28;20105;-82
2021/09/07 23:06:36;;;;;;;10.52;6.72;;;;;;;;;;5071878;28;20043;-82
2021/09/07 23:09:02;;;;;;;8.65;6.68;;;;;;;;;;5072326;28;20094;-82
2021/09/07 23:11:28;;;;;;;9.63;7.05;;;;;;;;;;5072459;28;20079;-82
2021/09/07 23:13:54;;;;;;;8.73;6.70;;;;;;;;;;5071429;28;20476;-78
2021/09/07 23:16:20;;;;;;;10.55;7.25;;;;;;;;;;5073097;28;20056;-81
2021/09/07 23:18:46;;;;;;;11.43;6.78;;;;;;;;;;5071883;28;20021;-80
2021/09/07 23:21:12;;;;;;;9.93;7.28;;;;;;;;;;5070928;28;20071;-80
2021/09/07 23:23:38;;;;;;;11.38;6.43;;;;;;;;;;5073233;28;20052;-77
2021/09/07 23:26:04;;;;;;;14.43;7.88;;;;;;;;;;5072244;28;20074;-82
2021/09/07 23:28:30;;;;;;;11.23;7.72;;;;;;;;;;5072081;28;20567;-82
2021/09/07 23:30:55;;;;;;;9.20;6.70;;;24.20;87.70;;;;;;5072686;28;20040;-81
2021/09/07 23:33:21;;;;;;;10.60;6.93;;;24.20;88.20;;;;;;5071607;28;20017;-81
2021/09/07 23:35:47;;;;;;;9.90;6.63;;;24.20;88.20;;;;;;5071427;28;20032;-80
2021/09/07 23:38:12;;;;;;;12.73;7.25;;;24.20;88.10;;;;;;5072636;28;20064;-82
2021/09/07 23:40:38;;;;;;;9.20;7.07;;;24.20;88.10;;;;;;5071801;28;20019;-79
2021/09/07 23:43:03;;;;;;;9.68;7.20;;;24.20;88.00;;;;;;5071695;28;20063;-81
2021/09/07 23:45:29;;;;;;;10.73;6.85;;;24.20;87.90;;;;;;5071151;28;20077;-81
2021/09/07 23:47:55;;;;;;;10.05;7.30;;;24.20;88.00;;;;;;5072206;28;20082;-82
2021/09/07 23:50:20;;;;;;;8.93;7.30;;;24.20;88.00;;;;;;5071581;28;20500;-82
2021/09/07 23:52:46;;;;;;;12.75;7.18;;;24.20;87.90;;;;;;5071791;28;20483;-82
2021/09/07 23:55:12;;;;;;;12.77;7.50;;;24.10;87.90;;;;;;5071761;28;20061;-81
2021/09/07 23:57:38;;;;;;;10.23;7.03;;;24.10;88.00;;;;;;5071872;28;20484;-80
